Time;durP1;ratioP1;P1;durP2;ratioP2;P2;SDS_P1;SDS_P2;PMS_P1;PMS_P2;Temp;Humidity;BMP_temperature;BMP_pressure;BME280_temperature;BME280_humidity;BME280_pressure;Samples;Min_cycle;Max_cycle;Signal;HPM_P1;HPM_P2
2022/01/02 00:09:43;;;;;;;2.45;1.17;;;12.60;75.80;;;;;;20785978;28;20029;-77
2022/01/02 00:19:51;;;;;;;2.75;1.10;;;12.50;75.80;;;;;;20766250;28;20468;-77
2022/01/02 00:29:51;;;;;;;2.13;1.02;;;12.50;75.80;;;;;;20749179;28;20488;-77
2022/01/02 00:39:52;;;;;;;1.87;1.13;;;12.50;75.80;;;;;;20764972;28;20029;-76
2022/01/02 00:50:20;;;;;;;1.38;0.80;;;12.50;75.70;;;;;;20822702;28;20300;-77
2022/01/02 01:00:21;;;;;;;1.75;1.08;;;12.50;75.80;;;;;;20803747;28;20060;-76
2022/01/02 01:10:23;;;;;;;1.08;0.90;;;12.50;75.70;;;;;;20804752;28;20464;-76
2022/01/02 01:20:28;;;;;;;1.48;1.00;;;12.50;75.70;;;;;;20779019;28;20373;-76
2022/01/02 01:30:29;;;;;;;1.30;0.90;;;12.50;75.70;;;;;;20705121;28;20054;-76
2022/01/02 01:40:33;;;;;;;2.27;0.97;;;12.50;75.70;;;;;;20737086;28;20048;-76
2022/01/02 01:50:39;;;;;;;1.70;0.98;;;12.50;75.60;;;;;;20720378;28;20339;-76
2022/01/02 02:00:42;;;;;;;1.52;0.82;;;12.50;75.60;;;;;;20704297;28;20038;-76
2022/01/02 02:10:55;;;;;;;2.53;1.27;;;12.50;75.60;;;;;;20704765;28;20042;-76
2022/01/02 02:20:56;;;;;;;1.73;1.00;;;12.50;75.60;;;;;;20704279;28;20045;-76
2022/01/02 02:31:01;;;;;;;2.22;1.13;;;12.50;75.60;;;;;;20718763;28;20042;-77
2022/01/02 02:41:02;;;;;;;1.08;0.85;;;12.40;75.60;;;;;;20716531;28;20060;-76
2022/01/02 02:51:05;;;;;;;3.35;1.10;;;12.50;75.60;;;;;;20701286;28;20476;-76
2022/01/02 03:01:08;;;;;;;1.55;0.98;;;12.40;75.50;;;;;;20731393;28;20476;-76
2022/01/02 03:11:13;;;;;;;1.35;1.08;;;12.40;75.50;;;;;;20714579;28;20049;-76
2022/01/02 03:21:14;;;;;;;2.03;1.23;;;12.40;75.50;;;;;;20698594;28;20038;-76
2022/01/02 03:31:14;;;;;;;1.15;0.82;;;12.50;75.60;;;;;;20751441;28;20452;-76
2022/01/02 03:41:15;;;;;;;1.60;0.90;;;12.40;75.60;;;;;;20825858;28;20280;-76
2022/01/02 03:51:15;;;;;;;3.03;1.50;;;12.40;75.60;;;;;;20810781;28;20045;-76
2022/01/02 04:01:16;;;;;;;1.80;1.23;;;12.40;75.60;;;;;;20808822;28;20290;-76
2022/01/02 04:11:17;;;;;;;1.83;1.20;;;12.40;75.60;;;;;;20808453;28;20323;-76
2022/01/02 04:21:18;;;;;;;1.63;1.25;;;12.40;75.60;;;;;;20792046;28;20331;-76
2022/01/02 04:31:19;;;;;;;1.98;1.33;;;12.40;75.60;;;;;;20815659;28;20037;-76
2022/01/02 04:41:20;;;;;;;1.90;1.20;;;12.40;75.60;;;;;;20823319;28;20061;-76
2022/01/02 04:51:20;;;;;;;3.78;1.50;;;12.40;75.60;;;;;;20806325;28;20025;-77
2022/01/02 05:01:22;;;;;;;2.50;1.23;;;12.40;75.60;;;;;;20805919;28;20474;-77
2022/01/02 05:11:23;;;;;;;3.05;1.08;;;12.40;75.60;;;;;;20821601;28;20480;-77
2022/01/02 05:21:24;;;;;;;1.88;1.13;;;12.50;75.50;;;;;;20805503;28;20038;-76
2022/01/02 05:31:25;;;;;;;3.03;1.35;;;12.70;75.10;;;;;;20802607;28;20029;-77
2022/01/02 05:41:27;;;;;;;1.00;0.85;;;12.90;74.30;;;;;;20748059;28;20495;-77
2022/01/02 05:51:30;;;;;;;2.85;1.52;;;13.20;73.40;;;;;;20752050;28;20049;-77
2022/01/02 06:01:31;;;;;;;2.88;1.65;;;13.50;72.40;;;;;;20735792;28;20492;-77
2022/01/02 06:11:32;;;;;;;2.70;1.27;;;13.70;71.60;;;;;;20703249;28;20096;-77
2022/01/02 06:21:33;;;;;;;2.03;1.13;;;13.80;71.10;;;;;;20736079;28;20034;-77
2022/01/02 06:31:35;;;;;;;2.40;0.90;;;13.60;71.20;;;;;;20717687;28;20038;-76
2022/01/02 06:41:36;;;;;;;1.88;1.17;;;13.40;71.60;;;;;;20734261;28;20069;-77
2022/01/02 06:51:37;;;;;;;1.85;1.00;;;13.20;72.20;;;;;;20731334;28;20465;-77
2022/01/02 07:01:38;;;;;;;2.13;1.33;;;13.10;72.70;;;;;;20731152;28;20034;-76
2022/01/02 07:11:39;;;;;;;4.88;1.42;;;13.00;73.10;;;;;;20714416;28;20041;-77
2022/01/02 07:21:39;;;;;;;2.10;1.40;;;12.90;73.50;;;;;;20733725;28;20029;-77
2022/01/02 07:31:40;;;;;;;2.28;1.30;;;12.80;73.70;;;;;;20696730;28;20042;-76
2022/01/02 07:41:41;;;;;;;8.05;2.42;;;12.70;73.90;;;;;;20728823;28;20037;-78
2022/01/02 07:51:41;;;;;;;1.67;1.20;;;12.70;74.20;;;;;;20696935;28;20034;-76
2022/01/02 08:01:42;;;;;;;4.47;1.50;;;12.60;74.40;;;;;;20711688;28;20117;-76
2022/01/02 08:11:43;;;;;;;1.35;0.90;;;12.60;74.60;;;;;;20725998;28;20064;-75
2022/01/02 08:21:43;;;;;;;2.08;1.10;;;12.60;74.80;;;;;;20765972;28;20037;-79
2022/01/02 08:31:44;;;;;;;3.65;1.45;;;12.60;75.00;;;;;;20826654;28;20500;-75
2022/01/02 08:41:44;;;;;;;3.25;1.50;;;12.60;75.20;;;;;;20741487;28;20296;-76
2022/01/02 08:51:45;;;;;;;2.75;1.27;;;12.60;75.40;;;;;;20741165;28;20042;-76
2022/01/02 09:01:46;;;;;;;2.63;1.40;;;12.60;75.50;;;;;;20709117;28;20512;-76
2022/01/02 09:11:46;;;;;;;4.00;1.30;;;12.60;75.60;;;;;;20691228;28;20057;-76
2022/01/02 09:21:47;;;;;;;3.87;1.63;;;12.50;75.60;;;;;;20754122;28;20053;-78
2022/01/02 09:31:48;;;;;;;1.90;1.00;;;12.60;75.80;;;;;;20722801;28;20293;-74
2022/01/02 09:41:48;;;;;;;2.58;1.23;;;12.60;75.90;;;;;;20704666;28;20039;-73
2022/01/02 09:51:52;;;;;;;1.80;1.10;;;12.60;76.50;;;;;;20775513;28;20033;-82
2022/01/02 10:01:53;;;;;;;1.45;1.00;;;12.60;75.90;;;;;;20806885;28;20037;-77
2022/01/02 10:11:53;;;;;;;2.13;1.05;;;12.60;75.90;;;;;;20819236;28;20032;-75
2022/01/02 10:22:03;;;;;;;2.38;0.90;;;12.60;75.80;;;;;;20719538;28;20033;-79
2022/01/02 10:32:41;;;;;;;2.60;1.33;;;12.60;75.80;;;;;;20702570;28;20119;-76
2022/01/02 10:42:42;;;;;;;2.87;0.70;;;12.60;75.70;;;;;;20721690;28;20040;-73
2022/01/02 10:52:45;;;;;;;2.80;1.20;;;12.50;75.60;;;;;;20813653;28;20077;-84
2022/01/02 11:02:46;;;;;;;1.92;1.10;;;12.60;75.60;;;;;;20816392;28;20029;-86
2022/01/02 11:12:47;;;;;;;1.98;0.82;;;12.50;75.60;;;;;;20789641;28;20029;-85
2022/01/02 11:23:00;;;;;;;3.50;0.98;;;12.60;75.40;;;;;;20753321;28;20073;-87
2022/01/02 11:33:05;;;;;;;1.83;1.00;;;12.80;74.80;;;;;;21233139;22;20048;-80
2022/01/02 11:43:06;;;;;;;1.23;0.82;;;13.10;74.00;;;;;;20879124;28;20742;-84
2022/01/02 11:53:09;;;;;;;1.60;0.63;;;13.40;72.90;;;;;;20862212;28;20043;-74
2022/01/02 12:03:42;;;;;;;2.03;0.80;;;13.70;72.00;;;;;;20908424;28;20536;-85
2022/01/02 12:13:43;;;;;;;1.52;1.00;;;13.90;71.30;;;;;;20897139;28;20048;-85
2022/01/02 12:23:44;;;;;;;4.03;1.10;;;13.90;70.90;;;;;;20911118;28;20041;-80
2022/01/02 12:33:45;;;;;;;1.40;0.80;;;13.80;70.80;;;;;;20907248;28;20041;-80
2022/01/02 12:43:53;;;;;;;1.42;0.93;;;13.60;71.10;;;;;;20874230;28;20045;-78
2022/01/02 12:53:59;;;;;;;1.77;1.20;;;13.40;71.50;;;;;;20898618;28;20029;-75
2022/01/02 13:04:00;;;;;;;1.88;1.00;;;13.30;72.00;;;;;;20898190;28;20059;-74
2022/01/02 13:14:01;;;;;;;1.90;1.10;;;13.10;72.40;;;;;;20868370;28;20061;-72
2022/01/02 13:24:21;;;;;;;2.05;1.15;;;13.00;72.70;;;;;;20867935;28;20041;-73
2022/01/02 13:34:26;;;;;;;2.20;1.13;;;13.00;73.10;;;;;;20885901;28;20041;-86
2022/01/02 13:44:34;;;;;;;2.37;1.47;;;12.90;73.30;;;;;;20904237;28;20120;-77
2022/01/02 13:54:35;;;;;;;3.63;1.10;;;12.90;73.60;;;;;;20900812;28;20025;-76
2022/01/02 14:04:54;;;;;;;2.03;1.10;;;12.80;74.10;;;;;;20881731;28;20513;-77
2022/01/02 14:15:02;;;;;;;1.95;1.30;;;12.80;74.40;;;;;;20895954;28;20300;-76
2022/01/02 14:25:04;;;;;;;5.03;1.42;;;12.80;74.60;;;;;;20824865;28;20115;-75
2022/01/02 14:35:06;;;;;;;5.60;0.93;;;12.70;74.80;;;;;;20834293;28;20478;-77
2022/01/02 14:45:08;;;;;;;3.55;1.50;;;12.70;75.10;;;;;;20837419;28;20037;-76
2022/01/02 14:55:15;;;;;;;1.98;1.55;;;12.70;75.20;;;;;;20834889;28;20030;-77
2022/01/02 15:05:16;;;;;;;1.92;1.13;;;12.70;75.40;;;;;;20818580;28;20049;-75
2022/01/02 15:15:18;;;;;;;2.63;1.10;;;12.70;75.50;;;;;;20829118;28;20041;-76
2022/01/02 15:25:19;;;;;;;2.72;1.33;;;12.70;75.50;;;;;;20811908;28;20080;-78
2022/01/02 15:35:20;;;;;;;2.30;1.35;;;12.70;75.50;;;;;;20794434;28;20029;-78
2022/01/02 15:45:20;;;;;;;3.50;1.47;;;12.60;75.40;;;;;;20826105;28;20034;-78
2022/01/02 15:55:21;;;;;;;3.58;1.65;;;12.70;75.20;;;;;;20809568;28;20291;-77
2022/01/02 16:05:23;;;;;;;3.00;1.10;;;12.80;75.00;;;;;;20809111;28;20492;-77
2022/01/02 16:15:23;;;;;;;1.77;1.35;;;13.00;74.50;;;;;;20810672;28;20041;-80
2022/01/02 16:25:26;;;;;;;4.47;1.30;;;13.20;73.90;;;;;;20829649;28;20057;-79
2022/01/02 16:35:26;;;;;;;2.15;1.23;;;13.40;73.10;;;;;;20824153;28;20300;-79
2022/01/02 16:45:28;;;;;;;1.55;1.15;;;13.50;72.60;;;;;;20842523;28;20033;-84
2022/01/02 16:55:36;;;;;;;2.47;1.40;;;13.50;72.50;;;;;;20885427;28;20029;-85
2022/01/02 17:05:36;;;;;;;4.18;1.80;;;13.30;72.70;;;;;;20913203;28;20300;-84
2022/01/02 17:15:37;;;;;;;2.50;1.60;;;13.10;73.00;;;;;;20879869;28;20033;-84
2022/01/02 17:25:39;;;;;;;1.73;1.13;;;13.10;73.40;;;;;;20877794;28;20126;-84
2022/01/02 17:35:41;;;;;;;1.67;0.98;;;12.90;73.60;;;;;;20892039;28;20370;-81
2022/01/02 17:45:42;;;;;;;4.13;1.58;;;12.90;73.90;;;;;;20906226;28;20439;-88
2022/01/02 17:55:43;;;;;;;3.63;1.20;;;12.80;74.20;;;;;;20874182;28;20045;-83
2022/01/02 18:05:43;;;;;;;4.43;1.60;;;12.80;74.40;;;;;;20904436;28;20045;-84
2022/01/02 18:15:44;;;;;;;4.70;1.75;;;12.70;74.50;;;;;;20904466;28;20032;-82
2022/01/02 18:25:46;;;;;;;3.10;1.55;;;12.70;74.70;;;;;;20883811;28;20041;-81
2022/01/02 18:35:46;;;;;;;4.28;1.38;;;12.70;74.80;;;;;;20869272;28;20044;-84
2022/01/02 18:45:52;;;;;;;2.67;1.30;;;12.70;74.90;;;;;;20882642;28;20070;-81
2022/01/02 18:55:53;;;;;;;3.63;1.90;;;12.60;75.00;;;;;;20883117;28;20442;-86
2022/01/02 19:05:55;;;;;;;2.90;1.17;;;12.60;75.10;;;;;;20899694;28;20041;-79
2022/01/02 19:15:57;;;;;;;2.15;1.33;;;12.60;75.20;;;;;;20896662;28;20059;-80
2022/01/02 19:25:58;;;;;;;3.55;1.52;;;12.60;75.30;;;;;;20881595;28;20056;-78
2022/01/02 19:35:58;;;;;;;5.05;1.40;;;12.50;75.30;;;;;;20910623;28;20044;-76
2022/01/02 19:45:59;;;;;;;3.88;1.60;;;12.50;75.30;;;;;;20861611;28;20051;-82
2022/01/02 19:55:59;;;;;;;2.55;1.08;;;12.60;75.30;;;;;;20856481;28;20044;-72
2022/01/02 20:06:01;;;;;;;3.03;1.35;;;12.60;75.20;;;;;;20873794;28;20449;-83
2022/01/02 20:16:02;;;;;;;2.90;1.30;;;12.60;75.10;;;;;;20866870;28;20043;-84
2022/01/02 20:26:05;;;;;;;3.67;1.30;;;12.60;75.00;;;;;;20884005;28;20495;-84
2022/01/02 20:36:05;;;;;;;5.15;1.20;;;12.60;75.00;;;;;;20869893;28;20064;-85
2022/01/02 20:46:06;;;;;;;4.53;1.35;;;12.60;74.90;;;;;;20884379;28;20104;-85
2022/01/02 20:56:09;;;;;;;6.65;1.48;;;12.50;74.90;;;;;;20885693;28;20124;-85
2022/01/02 21:06:10;;;;;;;7.63;1.02;;;12.60;74.90;;;;;;20886072;28;20045;-85
2022/01/02 21:16:11;;;;;;;1.88;1.00;;;12.60;74.90;;;;;;20879377;28;20044;-85
2022/01/02 21:26:11;;;;;;;2.33;1.15;;;12.60;74.80;;;;;;20915000;28;20037;-84
2022/01/02 21:36:12;;;;;;;3.35;1.25;;;12.60;74.80;;;;;;20931527;28;20064;-84
2022/01/02 21:46:12;;;;;;;4.43;1.20;;;12.60;74.80;;;;;;20880774;28;20131;-85
2022/01/02 21:56:15;;;;;;;2.20;1.00;;;12.60;74.80;;;;;;20879975;28;20059;-85
2022/01/02 22:06:16;;;;;;;3.08;1.33;;;12.60;74.80;;;;;;20879541;28;20099;-85
2022/01/02 22:16:19;;;;;;;2.13;0.90;;;12.60;74.80;;;;;;20911976;28;20467;-86
2022/01/02 22:26:24;;;;;;;2.95;1.20;;;12.60;74.80;;;;;;20909451;28;20068;-85
2022/01/02 22:36:25;;;;;;;2.95;1.23;;;12.60;74.80;;;;;;20877375;28;20041;-84
2022/01/02 22:46:26;;;;;;;1.73;0.90;;;12.60;74.80;;;;;;20925120;28;20090;-84
2022/01/02 22:56:27;;;;;;;2.60;1.13;;;12.60;74.80;;;;;;20892023;28;20044;-85
2022/01/02 23:06:27;;;;;;;1.98;0.93;;;12.60;74.80;;;;;;20890400;28;20731;-84
2022/01/02 23:16:31;;;;;;;3.53;1.35;;;12.60;74.80;;;;;;20872241;28;20052;-85
2022/01/02 23:26:31;;;;;;;2.15;1.05;;;12.60;74.70;;;;;;20888383;28;20041;-83
2022/01/02 23:36:32;;;;;;;1.30;0.67;;;12.60;74.80;;;;;;20904342;28;20679;-85
2022/01/02 23:46:37;;;;;;;1.27;0.82;;;12.50;74.80;;;;;;20870283;28;20307;-86
2022/01/02 23:56:37;;;;;;;1.52;0.98;;;12.60;74.70;;;;;;20903294;28;20395;-85
